Time;durP1;ratioP1;P1;durP2;ratioP2;P2;SDS_P1;SDS_P2;PMS_P1;PMS_P2;Temp;Humidity;BMP_temperature;BMP_pressure;BME280_temperature;BME280_humidity;BME280_pressure;Samples;Min_cycle;Max_cycle;Signal;HPM_P1;HPM_P2
2022/11/05 00:09:33;;;;;;;52.85;21.48;;;;;;;;;;5005749;28;20037;-66
2022/11/05 00:17:44;;;;;;;42.25;18.95;;;;;;;;;;5007700;28;20445;-66
2022/11/05 00:20:12;;;;;;;46.20;20.00;;;;;;;;;;5004597;28;20026;-65
2022/11/05 00:25:21;;;;;;;44.83;20.40;;;;;;;;;;5006796;28;20117;-66
2022/11/05 00:27:47;;;;;;;40.28;19.35;;;;;;;;;;5003884;28;20034;-66
2022/11/05 00:30:16;;;;;;;34.83;18.25;;;;;;;;;;5006398;28;20029;-65
2022/11/05 00:32:42;;;;;;;38.65;18.27;;;;;;;;;;4999776;28;20022;-66
2022/11/05 00:35:07;;;;;;;42.70;17.88;;;;;;;;;;5000537;28;20052;-66
2022/11/05 00:37:33;;;;;;;46.47;20.83;;;;;;;;;;5001706;28;20022;-66
2022/11/05 00:39:58;;;;;;;40.10;18.15;;;;;;;;;;4997163;28;20454;-65
2022/11/05 00:45:08;;;;;;;51.85;19.35;;;;;;;;;;5000975;28;20263;-65
2022/11/05 00:50:20;;;;;;;37.25;17.50;;;;;;;;;;5006440;28;20422;-66
2022/11/05 00:52:55;;;;;;;34.40;17.30;;;;;;;;;;5003784;28;20026;-66
2022/11/05 00:55:25;;;;;;;33.90;17.40;;;;;;;;;;5004455;28;20034;-64
2022/11/05 00:57:50;;;;;;;45.80;18.45;;;;;;;;;;5007355;28;20520;-65
2022/11/05 01:00:15;;;;;;;42.65;19.27;;;;;;;;;;4994449;28;20038;-65
2022/11/05 01:02:41;;;;;;;34.00;17.08;;;;;;;;;;5002947;28;20211;-63
2022/11/05 01:05:06;;;;;;;36.13;16.67;;;;;;;;;;4998096;28;20394;-65
2022/11/05 01:07:31;;;;;;;39.78;18.45;;;;;;;;;;5000683;28;20364;-65
2022/11/05 01:09:56;;;;;;;43.65;17.73;;;;;;;;;;5002928;28;20105;-65
2022/11/05 01:12:22;;;;;;;43.17;17.77;;;;;;;;;;5006317;28;20022;-66
2022/11/05 01:14:47;;;;;;;38.70;17.63;;;;;;;;;;5005460;28;20041;-66
2022/11/05 01:17:12;;;;;;;36.47;16.50;;;;;;;;;;5007979;28;20037;-66
2022/11/05 01:19:38;;;;;;;47.20;17.23;;;;;;;;;;5005777;28;20313;-66
2022/11/05 01:22:03;;;;;;;32.33;16.30;;;;;;;;;;5010063;28;20555;-66
2022/11/05 01:24:28;;;;;;;33.65;16.05;;;;;;;;;;5011848;28;20030;-66
2022/11/05 01:26:53;;;;;;;43.73;15.80;;;;;;;;;;5012008;28;20029;-66
2022/11/05 01:29:19;;;;;;;33.20;15.50;;;;;;;;;;5005004;28;20364;-66
2022/11/05 01:31:44;;;;;;;43.00;16.65;;;;;;;;;;5009212;28;20280;-64
2022/11/05 01:34:09;;;;;;;32.97;16.15;;;;;;;;;;5009118;28;20026;-66
2022/11/05 01:36:34;;;;;;;43.30;15.93;;;;;;;;;;5002008;28;20101;-66
2022/11/05 01:39:00;;;;;;;36.47;15.80;;;;;;;;;;5009302;28;20674;-67
2022/11/05 01:41:25;;;;;;;35.17;15.43;;;;;;;;;;5004634;28;20298;-66
2022/11/05 01:43:55;;;;;;;38.78;15.38;;;;;;;;;;5007588;28;20041;-66
2022/11/05 01:46:24;;;;;;;32.25;14.48;;;;;;;;;;5005141;28;20053;-66
2022/11/05 01:48:51;;;;;;;35.50;15.73;;;;;;;;;;5003713;28;20018;-66
2022/11/05 01:51:17;;;;;;;35.38;17.08;;;;;;;;;;5008904;28;20045;-66
2022/11/05 01:57:16;;;;;;;37.92;17.88;;;;;;;;;;5006730;28;20072;-66
2022/11/05 01:59:44;;;;;;;38.20;17.55;;;;;;;;;;5006677;28;20371;-67
2022/11/05 02:02:10;;;;;;;35.85;19.90;;;;;;;;;;5009874;28;20045;-65
2022/11/05 02:04:36;;;;;;;39.40;17.30;;;;;;;;;;5005000;28;20076;-65
2022/11/05 02:07:03;;;;;;;35.05;17.92;;;;;;;;;;5009378;28;20034;-67
2022/11/05 02:09:43;;;;;;;37.10;17.35;;;;;;;;;;5011189;28;20018;-65
2022/11/05 02:12:10;;;;;;;33.90;17.42;;;;;;;;;;5010745;28;20041;-66
2022/11/05 02:14:35;;;;;;;33.92;16.95;;;;;;;;;;5005697;28;20478;-66
2022/11/05 02:17:07;;;;;;;36.70;16.73;;;;;;;;;;5008934;28;20026;-65
2022/11/05 02:19:51;;;;;;;34.22;16.75;;;;;;;;;;5009506;28;20281;-66
2022/11/05 02:22:22;;;;;;;37.25;16.27;;;;;;;;;;5022540;28;20097;-66
2022/11/05 02:25:06;;;;;;;31.48;16.63;;;;;;;;;;5010550;28;20057;-66
2022/11/05 02:27:54;;;;;;;32.97;15.55;;;;;;;;;;5009962;28;20026;-65
2022/11/05 02:30:38;;;;;;;28.00;15.23;;;;;;;;;;4998970;28;20696;-66
2022/11/05 02:33:06;;;;;;;28.85;14.90;;;;;;;;;;5006358;28;20066;-65
2022/11/05 02:35:31;;;;;;;35.50;16.17;;;;;;;;;;5009872;28;20018;-67
2022/11/05 02:38:06;;;;;;;35.83;16.27;;;;;;;;;;5009884;28;20026;-67
2022/11/05 02:40:35;;;;;;;34.10;15.90;;;;;;;;;;5010724;28;20018;-67
2022/11/05 02:43:07;;;;;;;28.52;14.20;;;;;;;;;;5007072;28;20060;-65
2022/11/05 02:45:51;;;;;;;39.47;15.15;;;;;;;;;;5004078;28;20080;-66
2022/11/05 02:48:16;;;;;;;33.72;15.73;;;;;;;;;;5006579;28;20041;-67
2022/11/05 02:50:47;;;;;;;29.70;14.57;;;;;;;;;;5007881;28;20026;-67
2022/11/05 02:53:25;;;;;;;33.35;16.25;;;;;;;;;;5010826;28;20824;-65
2022/11/05 02:55:54;;;;;;;35.95;15.50;;;;;;;;;;5007354;28;20561;-65
2022/11/05 02:58:20;;;;;;;35.35;16.25;;;;;;;;;;5005838;28;20132;-65
2022/11/05 03:00:50;;;;;;;36.25;15.93;;;;;;;;;;5008974;28;20542;-65
2022/11/05 03:03:17;;;;;;;42.63;15.75;;;;;;;;;;5007995;28;20030;-67
2022/11/05 03:06:02;;;;;;;30.75;15.88;;;;;;;;;;5007821;28;20022;-66
2022/11/05 03:08:35;;;;;;;32.78;16.55;;;;;;;;;;4987067;28;20660;-64
2022/11/05 03:11:06;;;;;;;32.95;16.33;;;;;;;;;;5010113;28;20414;-65
2022/11/05 03:13:50;;;;;;;33.78;16.77;;;;;;;;;;5004970;28;20022;-66
2022/11/05 03:16:34;;;;;;;34.55;16.27;;;;;;;;;;5006693;28;20010;-65
2022/11/05 03:19:02;;;;;;;31.27;15.18;;;;;;;;;;5008620;28;20089;-66
2022/11/05 03:21:30;;;;;;;38.08;16.52;;;;;;;;;;5005485;28;20018;-66
2022/11/05 03:23:59;;;;;;;39.53;17.23;;;;;;;;;;5003467;28;20022;-66
2022/11/05 03:26:27;;;;;;;36.00;14.48;;;;;;;;;;5010386;28;20006;-66
2022/11/05 03:28:58;;;;;;;35.95;15.18;;;;;;;;;;5003094;28;20026;-66
2022/11/05 03:31:24;;;;;;;29.05;14.15;;;;;;;;;;5003684;28;20114;-65
2022/11/05 03:33:50;;;;;;;35.58;16.20;;;;;;;;;;5009084;28;20056;-67
2022/11/05 03:36:19;;;;;;;31.60;14.48;;;;;;;;;;5006703;28;20022;-67
2022/11/05 03:38:46;;;;;;;30.20;15.25;;;;;;;;;;5007948;28;20026;-65
2022/11/05 03:41:14;;;;;;;34.83;16.00;;;;;;;;;;5010431;28;20410;-67
2022/11/05 03:43:40;;;;;;;30.85;14.38;;;;;;;;;;5003742;28;20022;-66
2022/11/05 03:46:12;;;;;;;31.83;13.85;;;;;;;;;;5008506;28;20026;-66
2022/11/05 03:48:39;;;;;;;30.58;14.18;;;;;;;;;;5009964;28;20018;-66
2022/11/05 03:51:17;;;;;;;30.30;14.43;;;;;;;;;;5003252;28;20553;-65
2022/11/05 03:53:46;;;;;;;51.95;21.60;;;;;;;;;;5008529;28;20021;-67
2022/11/05 03:56:17;;;;;;;42.10;17.30;;;;;;;;;;5009671;28;20054;-66
2022/11/05 03:58:42;;;;;;;;;;;;;;;;;;5006235;28;20101;-66
2022/11/05 04:01:07;;;;;;;37.72;15.65;;;;;;;;;;5003791;28;20000;-65
2022/11/05 04:03:35;;;;;;;78.72;35.97;;;;;;;;;;5007783;28;20473;-66
2022/11/05 04:14:32;;;;;;;45.63;20.58;;;;;;;;;;4945127;28;20025;-66
2022/11/05 04:17:10;;;;;;;39.33;18.43;;;;;;;;;;4950826;28;20031;-65
2022/11/05 04:25:04;;;;;;;38.00;16.92;;;;;;;;;;5007561;28;20076;-67
2022/11/05 04:27:30;;;;;;;41.20;17.50;;;;;;;;;;5002844;28;20320;-66
2022/11/05 04:32:38;;;;;;;31.90;16.85;;;;;;;;;;5008015;28;20064;-65
2022/11/05 04:35:04;;;;;;;29.67;16.27;;;;;;;;;;5006361;28;20061;-65
2022/11/05 04:37:29;;;;;;;37.17;17.33;;;;;;;;;;5005908;28;20596;-65
2022/11/05 04:39:54;;;;;;;34.28;17.00;;;;;;;;;;5007507;28;20030;-65
2022/11/05 04:42:19;;;;;;;38.55;17.25;;;;;;;;;;5007324;28;20697;-65
2022/11/05 04:44:44;;;;;;;44.43;17.63;;;;;;;;;;5006729;28;20024;-65
2022/11/05 04:47:09;;;;;;;38.97;17.60;;;;;;;;;;5007196;28;20496;-65
2022/11/05 04:49:35;;;;;;;33.50;15.73;;;;;;;;;;5004553;28;20611;-65
2022/11/05 04:52:00;;;;;;;39.88;16.48;;;;;;;;;;5005966;28;20021;-65
2022/11/05 04:54:25;;;;;;;44.10;16.88;;;;;;;;;;5008505;28;20029;-65
2022/11/05 04:56:50;;;;;;;36.70;15.82;;;;;;;;;;5002622;28;20044;-65
2022/11/05 04:59:15;;;;;;;37.78;16.02;;;;;;;;;;4995955;28;20368;-65
2022/11/05 05:01:40;;;;;;;29.90;14.43;;;;;;;;;;5001137;28;20273;-65
2022/11/05 05:04:06;;;;;;;32.17;15.07;;;;;;;;;;5010023;28;20271;-65
2022/11/05 05:06:31;;;;;;;28.38;13.98;;;;;;;;;;5004674;28;20677;-65
2022/11/05 05:08:56;;;;;;;27.00;15.30;;;;;;;;;;5006021;28;20525;-65
2022/11/05 05:11:21;;;;;;;33.72;14.57;;;;;;;;;;4998751;28;20269;-65
2022/11/05 05:13:47;;;;;;;35.20;15.45;;;;;;;;;;5004921;28;20372;-65
2022/11/05 05:16:20;;;;;;;28.65;13.38;;;;;;;;;;5004460;28;20498;-65
2022/11/05 05:18:45;;;;;;;30.40;15.27;;;;;;;;;;5004899;28;20033;-65
2022/11/05 05:23:54;;;;;;;29.10;14.95;;;;;;;;;;5002060;28;20033;-65
2022/11/05 05:26:20;;;;;;;28.67;14.43;;;;;;;;;;5005154;28;20022;-65
2022/11/05 05:28:45;;;;;;;34.03;15.03;;;;;;;;;;5001839;28;20026;-65
2022/11/05 05:31:10;;;;;;;32.35;16.38;;;;;;;;;;5006245;28;20291;-65
2022/11/05 05:33:35;;;;;;;31.20;16.37;;;;;;;;;;5003072;28;20277;-65
2022/11/05 05:36:03;;;;;;;38.97;16.65;;;;;;;;;;5002348;28;20304;-65
2022/11/05 05:38:28;;;;;;;32.35;16.17;;;;;;;;;;5002130;28;20022;-65
2022/11/05 05:40:56;;;;;;;36.25;16.08;;;;;;;;;;5005232;28;20475;-65
2022/11/05 05:43:21;;;;;;;37.47;16.73;;;;;;;;;;5005831;28;20026;-65
2022/11/05 05:45:46;;;;;;;34.47;15.82;;;;;;;;;;5004748;28;20210;-65
2022/11/05 05:48:12;;;;;;;30.63;15.68;;;;;;;;;;5003203;28;20273;-65
2022/11/05 05:50:37;;;;;;;35.13;15.77;;;;;;;;;;4995472;28;20112;-65
2022/11/05 05:53:02;;;;;;;30.90;15.07;;;;;;;;;;5004654;28;20343;-65
2022/11/05 05:55:27;;;;;;;36.00;16.57;;;;;;;;;;5002953;28;20306;-65
2022/11/05 05:57:52;;;;;;;41.60;16.90;;;;;;;;;;5003570;28;20347;-65
2022/11/05 06:00:17;;;;;;;34.25;15.32;;;;;;;;;;5005296;28;20018;-65
2022/11/05 06:02:43;;;;;;;32.15;15.52;;;;;;;;;;5007693;28;20699;-65
2022/11/05 06:05:08;;;;;;;33.93;15.60;;;;;;;;;;5006046;28;20061;-65
2022/11/05 06:07:33;;;;;;;33.20;16.63;;;;;;;;;;5005217;28;20304;-65
2022/11/05 06:09:58;;;;;;;34.15;16.50;;;;;;;;;;5007999;28;20410;-65
2022/11/05 06:12:23;;;;;;;31.30;16.73;;;;;;;;;;5007498;28;20037;-65
2022/11/05 06:14:49;;;;;;;39.55;16.65;;;;;;;;;;5005074;28;20355;-65
2022/11/05 06:17:14;;;;;;;35.03;16.73;;;;;;;;;;5002791;28;20021;-65
2022/11/05 06:19:39;;;;;;;30.67;16.03;;;;;;;;;;4998013;28;20277;-65
2022/11/05 06:22:04;;;;;;;44.17;17.07;;;;;;;;;;5006923;28;20276;-65
2022/11/05 06:24:29;;;;;;;31.17;16.17;;;;;;;;;;5003652;28;20276;-65
2022/11/05 06:26:54;;;;;;;32.22;17.10;;;;;;;;;;5001700;28;20611;-65
2022/11/05 06:29:20;;;;;;;32.83;17.08;;;;;;;;;;5009352;28;20277;-65
2022/11/05 06:31:45;;;;;;;35.17;16.35;;;;;;;;;;4998367;28;20284;-65
2022/11/05 06:34:10;;;;;;;31.63;16.80;;;;;;;;;;5008367;28;20034;-65
2022/11/05 06:36:35;;;;;;;34.47;17.10;;;;;;;;;;5008825;28;20371;-65
2022/11/05 06:39:00;;;;;;;33.83;17.65;;;;;;;;;;5009783;28;20339;-65
2022/11/05 06:41:26;;;;;;;40.72;18.00;;;;;;;;;;5006928;28;20052;-65
2022/11/05 06:43:51;;;;;;;34.77;18.10;;;;;;;;;;5002942;28;20024;-65
2022/11/05 06:46:16;;;;;;;41.17;17.80;;;;;;;;;;5002945;28;20575;-65
2022/11/05 06:48:41;;;;;;;35.08;17.85;;;;;;;;;;5001845;28;20277;-65
2022/11/05 06:51:07;;;;;;;42.00;18.63;;;;;;;;;;5002463;28;20445;-65
2022/11/05 06:53:33;;;;;;;41.75;18.10;;;;;;;;;;4997107;28;20541;-65
2022/11/05 06:56:02;;;;;;;37.95;18.10;;;;;;;;;;5001388;28;20466;-65
2022/11/05 06:58:27;;;;;;;44.85;18.77;;;;;;;;;;5003242;28;20030;-65
2022/11/05 07:00:53;;;;;;;40.35;17.63;;;;;;;;;;5003740;28;20075;-65
2022/11/05 07:03:18;;;;;;;35.30;17.05;;;;;;;;;;5006933;28;20099;-65
2022/11/05 07:05:47;;;;;;;37.73;19.60;;;;;;;;;;5001648;28;20084;-65
2022/11/05 07:08:12;;;;;;;37.33;18.48;;;;;;;;;;5001829;28;20330;-65
2022/11/05 07:10:37;;;;;;;41.20;18.60;;;;;;;;;;5003575;28;20430;-65
2022/11/05 07:13:03;;;;;;;42.60;19.30;;;;;;;;;;5006703;28;20295;-65
2022/11/05 07:15:28;;;;;;;50.05;18.80;;;;;;;;;;5004456;28;20292;-65
2022/11/05 07:17:57;;;;;;;39.93;18.70;;;;;;;;;;5004549;28;20425;-65
2022/11/05 07:20:22;;;;;;;35.65;17.83;;;;;;;;;;5004970;28;20273;-65
2022/11/05 07:22:47;;;;;;;45.23;18.07;;;;;;;;;;5004198;28;20032;-65
2022/11/05 07:25:12;;;;;;;37.60;17.80;;;;;;;;;;5006288;28;20276;-66
2022/11/05 07:27:38;;;;;;;37.50;19.23;;;;;;;;;;5006051;28;20663;-65
2022/11/05 07:30:05;;;;;;;36.42;17.77;;;;;;;;;;5001269;28;20520;-65
2022/11/05 07:32:35;;;;;;;39.47;18.88;;;;;;;;;;5006886;28;20099;-65
2022/11/05 07:35:00;;;;;;;36.75;17.75;;;;;;;;;;5004375;28;20313;-66
2022/11/05 07:37:25;;;;;;;36.72;18.42;;;;;;;;;;5002496;28;20506;-65
2022/11/05 07:39:50;;;;;;;29.45;14.48;;;;;;;;;;4996970;28;20272;-66
2022/11/05 07:42:15;;;;;;;36.10;16.73;;;;;;;;;;4998922;28;20396;-66
2022/11/05 07:44:41;;;;;;;32.22;14.90;;;;;;;;;;5004075;28;20769;-65
2022/11/05 07:47:06;;;;;;;25.08;14.57;;;;;;;;;;4998210;28;20064;-66
2022/11/05 07:49:31;;;;;;;29.90;14.43;;;;;;;;;;4997209;28;20080;-66
2022/11/05 07:51:56;;;;;;;27.53;13.20;;;;;;;;;;4999432;28;20034;-66
2022/11/05 07:54:25;;;;;;;21.25;13.73;;;;;;;;;;5003657;28;20336;-66
2022/11/05 07:56:50;;;;;;;26.10;15.27;;;;;;;;;;5006649;28;20117;-66
2022/11/05 07:59:15;;;;;;;23.30;13.83;;;;;;;;;;5002079;28;20112;-66
2022/11/05 08:01:40;;;;;;;38.40;18.97;;;;;;;;;;5000773;28;20785;-66
2022/11/05 08:04:05;;;;;;;35.05;18.02;;;;;;;;;;5002491;28;20376;-66
2022/11/05 08:06:30;;;;;;;31.13;15.27;;;;;;;;;;4996006;28;20038;-66
2022/11/05 08:08:56;;;;;;;33.38;17.27;;;;;;;;;;5003719;28;20370;-66
2022/11/05 08:11:21;;;;;;;26.50;15.80;;;;;;;;;;4996420;28;20122;-66
2022/11/05 08:13:46;;;;;;;31.00;15.37;;;;;;;;;;4997607;28;20741;-66
2022/11/05 08:16:11;;;;;;;24.27;15.20;;;;;;;;;;5005701;28;20280;-66
2022/11/05 08:18:36;;;;;;;29.25;15.50;;;;;;;;;;5006829;28;20280;-66
2022/11/05 08:21:03;;;;;;;34.50;15.93;;;;;;;;;;5002517;28;20495;-66
2022/11/05 08:23:29;;;;;;;25.67;13.48;;;;;;;;;;5008673;28;20022;-66
2022/11/05 08:25:55;;;;;;;26.60;13.43;;;;;;;;;;5002541;28;20028;-66
2022/11/05 08:28:20;;;;;;;28.58;13.85;;;;;;;;;;5007047;28;20112;-66
2022/11/05 08:30:52;;;;;;;28.13;13.63;;;;;;;;;;5001085;28;20394;-66
2022/11/05 08:33:19;;;;;;;27.70;14.82;;;;;;;;;;4999655;28;20026;-66
2022/11/05 08:35:44;;;;;;;28.85;13.88;;;;;;;;;;4999023;28;20056;-66
2022/11/05 08:38:12;;;;;;;23.73;13.07;;;;;;;;;;5001492;28;20057;-66
2022/11/05 08:40:37;;;;;;;26.15;13.48;;;;;;;;;;5001876;28;20672;-66
2022/11/05 08:43:04;;;;;;;21.42;11.82;;;;;;;;;;5001463;28;20018;-66
2022/11/05 08:45:29;;;;;;;23.60;11.48;;;;;;;;;;5003695;28;20029;-66
2022/11/05 08:48:05;;;;;;;32.80;13.02;;;;;;;;;;4995379;28;20113;-66
2022/11/05 08:50:31;;;;;;;23.77;12.10;;;;;;;;;;5002266;28;20030;-66
2022/11/05 08:52:56;;;;;;;26.05;12.35;;;;;;;;;;5006952;28;20037;-66
2022/11/05 08:55:21;;;;;;;23.33;12.63;;;;;;;;;;5006873;28;20429;-66
2022/11/05 08:57:46;;;;;;;22.77;10.60;;;;;;;;;;5008332;28;20288;-66
2022/11/05 09:00:12;;;;;;;21.90;11.43;;;;;;;;;;4999576;28;21361;-66
2022/11/05 09:02:38;;;;;;;22.33;11.70;;;;;;;;;;5000644;28;20780;-66
2022/11/05 09:05:04;;;;;;;16.60;8.95;;;;;;;;;;5002065;28;20045;-66
2022/11/05 09:07:30;;;;;;;19.65;10.48;;;;;;;;;;4997186;28;20482;-66
2022/11/05 09:09:55;;;;;;;17.90;8.73;;;;;;;;;;4993926;28;20391;-66
2022/11/05 09:12:20;;;;;;;19.13;9.90;;;;;;;;;;5006998;28;20033;-66
2022/11/05 09:14:45;;;;;;;20.17;10.03;;;;;;;;;;4997052;28;20038;-66
2022/11/05 09:17:18;;;;;;;17.63;9.13;;;;;;;;;;5007085;28;20324;-66
2022/11/05 09:19:43;;;;;;;22.95;9.98;;;;;;;;;;5005121;28;20053;-66
2022/11/05 09:22:11;;;;;;;20.55;9.15;;;;;;;;;;5007205;28;20065;-66
2022/11/05 09:24:36;;;;;;;23.05;10.32;;;;;;;;;;5006116;28;20028;-66
2022/11/05 09:27:01;;;;;;;17.92;9.45;;;;;;;;;;5003370;28;20037;-66
2022/11/05 09:29:27;;;;;;;15.23;7.13;;;;;;;;;;4992000;28;20030;-66
2022/11/05 09:31:52;;;;;;;23.30;10.40;;;;;;;;;;5006640;28;20307;-66
2022/11/05 09:34:17;;;;;;;21.55;9.40;;;;;;;;;;5004395;28;20029;-66
2022/11/05 09:36:42;;;;;;;17.73;8.70;;;;;;;;;;5007991;28;20125;-66
2022/11/05 09:39:07;;;;;;;23.73;10.05;;;;;;;;;;5002578;28;20422;-66
2022/11/05 09:41:34;;;;;;;25.60;8.77;;;;;;;;;;5004582;28;20084;-67
2022/11/05 09:44:02;;;;;;;22.13;9.80;;;;;;;;;;5002198;28;20754;-67
2022/11/05 09:46:28;;;;;;;23.52;9.45;;;;;;;;;;5009878;28;20061;-66
2022/11/05 09:49:05;;;;;;;16.67;9.57;;;;;;;;;;5012715;28;20037;-65
2022/11/05 09:51:31;;;;;;;21.48;9.80;;;;;;;;;;5004240;28;20113;-67
2022/11/05 09:53:58;;;;;;;18.70;9.75;;;;;;;;;;5004280;28;20105;-67
2022/11/05 09:56:28;;;;;;;23.00;8.40;;;;;;;;;;5011115;28;20033;-66
2022/11/05 09:58:53;;;;;;;22.83;9.02;;;;;;;;;;5003386;28;20026;-67
2022/11/05 10:01:23;;;;;;;18.92;8.52;;;;;;;;;;4999257;28;20152;-67
2022/11/05 10:03:50;;;;;;;17.65;8.65;;;;;;;;;;5011293;28;20026;-67
2022/11/05 10:06:20;;;;;;;15.45;7.25;;;;;;;;;;4998917;28;20374;-66
2022/11/05 10:08:47;;;;;;;13.93;6.03;;;;;;;;;;5004983;28;20025;-64
2022/11/05 10:11:15;;;;;;;16.00;8.07;;;;;;;;;;5000898;28;20038;-67
2022/11/05 10:13:43;;;;;;;19.40;7.15;;;;;;;;;;5000698;28;20084;-67
2022/11/05 10:16:22;;;;;;;18.08;9.10;;;;;;;;;;5001900;28;20022;-67
2022/11/05 10:19:08;;;;;;;20.20;7.50;;;;;;;;;;5004384;28;20096;-67
2022/11/05 10:21:34;;;;;;;14.10;7.22;;;;;;;;;;4994046;28;20037;-67
2022/11/05 10:23:59;;;;;;;15.02;7.75;;;;;;;;;;5003009;28;20030;-67
2022/11/05 10:26:27;;;;;;;13.07;7.78;;;;;;;;;;5000040;28;20029;-67
2022/11/05 10:28:53;;;;;;;32.72;8.82;;;;;;;;;;5005816;28;20033;-67
2022/11/05 10:31:20;;;;;;;17.05;7.47;;;;;;;;;;5003884;28;20030;-67
2022/11/05 10:33:59;;;;;;;18.58;7.85;;;;;;;;;;5006369;28;20029;-67
2022/11/05 10:36:28;;;;;;;18.00;4.93;;;;;;;;;;5003143;28;20029;-67
2022/11/05 10:38:57;;;;;;;10.10;3.80;;;;;;;;;;5011996;28;20041;-67
2022/11/05 10:41:33;;;;;;;19.20;6.80;;;;;;;;;;4996477;28;20382;-67
2022/11/05 10:44:17;;;;;;;15.23;7.53;;;;;;;;;;5002967;28;20022;-68
2022/11/05 10:46:48;;;;;;;17.63;7.00;;;;;;;;;;5009943;28;20061;-65
2022/11/05 10:49:32;;;;;;;13.15;5.88;;;;;;;;;;5006440;28;20018;-69
2022/11/05 10:51:58;;;;;;;17.35;6.75;;;;;;;;;;4995213;28;20082;-66
2022/11/05 10:54:28;;;;;;;6.82;3.85;;;;;;;;;;4998473;28;20035;-67
2022/11/05 10:56:54;;;;;;;21.67;6.45;;;;;;;;;;5000222;28;20051;-67
2022/11/05 10:59:19;;;;;;;17.65;6.15;;;;;;;;;;5005092;28;20021;-65
2022/11/05 11:01:44;;;;;;;15.25;6.57;;;;;;;;;;5003867;28;20022;-66
2022/11/05 11:04:21;;;;;;;12.15;3.45;;;;;;;;;;5003284;28;20057;-65
2022/11/05 11:06:48;;;;;;;13.25;5.60;;;;;;;;;;5001912;28;20022;-67
2022/11/05 11:09:21;;;;;;;18.92;6.95;;;;;;;;;;5004049;28;20490;-66
2022/11/05 11:11:52;;;;;;;30.90;13.88;;;;;;;;;;5003342;28;20080;-66
2022/11/05 11:14:18;;;;;;;37.75;15.27;;;;;;;;;;5000921;28;20060;-66
2022/11/05 11:16:45;;;;;;;16.60;4.60;;;;;;;;;;5003047;28;20021;-64
2022/11/05 11:19:26;;;;;;;12.45;6.20;;;;;;;;;;5003586;28;20030;-66
2022/11/05 11:22:10;;;;;;;20.10;6.05;;;;;;;;;;5004947;28;20033;-67
2022/11/05 11:24:43;;;;;;;14.80;5.63;;;;;;;;;;5000961;28;20038;-66
2022/11/05 11:27:09;;;;;;;10.98;5.40;;;;;;;;;;5004279;28;20026;-66
2022/11/05 11:29:38;;;;;;;12.35;4.35;;;;;;;;;;5005367;28;20034;-66
2022/11/05 11:32:10;;;;;;;11.70;4.20;;;;;;;;;;5005737;28;20028;-66
2022/11/05 11:34:38;;;;;;;6.53;2.45;;;;;;;;;;5006940;28;20096;-66
2022/11/05 11:37:07;;;;;;;16.45;3.58;;;;;;;;;;5003973;28;20053;-67
2022/11/05 11:39:33;;;;;;;9.43;3.08;;;;;;;;;;5003223;28;20018;-66
2022/11/05 11:42:00;;;;;;;6.95;2.05;;;;;;;;;;5002700;28;20022;-66
2022/11/05 11:44:28;;;;;;;8.90;2.65;;;;;;;;;;5007255;28;20030;-66
2022/11/05 11:47:00;;;;;;;6.53;2.60;;;;;;;;;;5005712;28;20041;-66
2022/11/05 11:49:45;;;;;;;11.68;2.97;;;;;;;;;;5003550;28;20032;-66
2022/11/05 11:52:12;;;;;;;8.35;3.00;;;;;;;;;;5004370;28;20427;-68
2022/11/05 11:54:37;;;;;;;3.83;1.38;;;;;;;;;;5006411;28;20379;-67
2022/11/05 11:57:18;;;;;;;6.63;2.10;;;;;;;;;;5004848;28;20049;-66
2022/11/05 11:59:43;;;;;;;9.63;2.63;;;;;;;;;;5002442;28;20030;-66
2022/11/05 12:02:22;;;;;;;7.13;2.20;;;;;;;;;;5006599;28;20027;-66
2022/11/05 12:04:57;;;;;;;9.95;2.10;;;;;;;;;;5006256;28;20096;-66
2022/11/05 12:07:22;;;;;;;8.55;1.50;;;;;;;;;;5001874;28;20148;-67
2022/11/05 12:09:55;;;;;;;11.07;1.70;;;;;;;;;;5004570;28;20032;-66
2022/11/05 12:12:30;;;;;;;10.50;1.85;;;;;;;;;;5002846;28;20482;-66
2022/11/05 12:15:02;;;;;;;7.65;1.98;;;;;;;;;;5001845;28;20045;-66
2022/11/05 12:17:36;;;;;;;6.97;1.52;;;;;;;;;;5007872;28;20029;-66
2022/11/05 12:20:20;;;;;;;8.63;1.65;;;;;;;;;;5000263;28;20407;-66
2022/11/05 12:22:52;;;;;;;9.85;1.90;;;;;;;;;;5001743;28;20072;-66
2022/11/05 12:25:17;;;;;;;10.00;1.63;;;;;;;;;;5006124;28;20049;-65
2022/11/05 12:27:42;;;;;;;7.57;1.83;;;;;;;;;;4996592;28;20383;-66
2022/11/05 12:30:16;;;;;;;6.32;1.80;;;;;;;;;;5002214;28;20030;-66
2022/11/05 12:32:47;;;;;;;9.15;1.55;;;;;;;;;;5007499;28;20030;-67
2022/11/05 12:35:22;;;;;;;8.85;2.40;;;;;;;;;;4996134;28;20025;-66
2022/11/05 12:37:47;;;;;;;8.77;1.98;;;;;;;;;;5002020;28;21433;-66
2022/11/05 12:40:19;;;;;;;5.63;1.50;;;;;;;;;;4997423;28;20018;-66
2022/11/05 12:43:03;;;;;;;7.13;2.58;;;;;;;;;;5001644;28;20017;-66
2022/11/05 12:45:42;;;;;;;8.38;2.80;;;;;;;;;;5002778;28;20032;-66
2022/11/05 12:48:13;;;;;;;6.72;2.10;;;;;;;;;;5004506;28;20113;-66
2022/11/05 12:50:38;;;;;;;6.47;2.08;;;;;;;;;;5001195;28;20672;-66
2022/11/05 12:53:03;;;;;;;7.25;2.10;;;;;;;;;;4996956;28;20574;-65
2022/11/05 12:55:35;;;;;;;13.23;3.35;;;;;;;;;;5002664;28;20061;-67
2022/11/05 12:58:09;;;;;;;7.43;2.65;;;;;;;;;;5000963;28;20393;-66
2022/11/05 13:00:35;;;;;;;14.63;3.10;;;;;;;;;;5004946;28;20049;-67
2022/11/05 13:03:20;;;;;;;12.88;2.53;;;;;;;;;;5005351;28;20037;-66
2022/11/05 13:05:48;;;;;;;8.27;2.55;;;;;;;;;;5005751;28;20022;-66
2022/11/05 13:08:17;;;;;;;11.23;2.38;;;;;;;;;;4998828;28;20029;-66
2022/11/05 13:10:48;;;;;;;10.10;2.03;;;;;;;;;;5008556;28;20046;-66
2022/11/05 13:13:29;;;;;;;4.10;2.13;;;;;;;;;;5014196;28;20026;-66
2022/11/05 13:15:57;;;;;;;8.13;2.35;;;;;;;;;;5003673;28;20533;-66
2022/11/05 13:18:26;;;;;;;5.20;2.50;;;;;;;;;;5010003;28;20029;-66
2022/11/05 13:20:52;;;;;;;6.40;1.88;;;;;;;;;;5014005;28;20009;-66
2022/11/05 13:23:22;;;;;;;9.43;2.17;;;;;;;;;;5013467;28;20017;-66
2022/11/05 13:26:06;;;;;;;9.00;1.65;;;;;;;;;;5014143;28;20021;-66
2022/11/05 13:28:32;;;;;;;6.30;2.15;;;;;;;;;;5005591;28;20505;-66
2022/11/05 13:31:00;;;;;;;9.77;2.17;;;;;;;;;;5010041;28;20637;-69
2022/11/05 13:33:28;;;;;;;15.40;3.17;;;;;;;;;;5014144;28;20053;-65
2022/11/05 13:38:59;;;;;;;9.00;2.42;;;;;;;;;;5003103;28;20038;-66
2022/11/05 13:41:24;;;;;;;;;;;;;;;;;;5012119;28;20021;-65
2022/11/05 13:43:59;;;;;;;6.55;2.00;;;;;;;;;;5010066;28;19909;-66
2022/11/05 13:46:30;;;;;;;4.72;1.67;;;;;;;;;;5005392;28;20021;-66
2022/11/05 13:49:04;;;;;;;11.93;2.33;;;;;;;;;;5009672;28;20032;-66
2022/11/05 13:51:50;;;;;;;8.55;1.35;;;;;;;;;;5011767;28;20047;-66
2022/11/05 13:54:18;;;;;;;8.55;1.80;;;;;;;;;;5012862;28;20037;-65
2022/11/05 13:56:58;;;;;;;4.38;1.58;;;;;;;;;;5008750;28;20386;-66
2022/11/05 13:59:36;;;;;;;4.78;1.65;;;;;;;;;;5006579;28;20521;-65
2022/11/05 14:02:03;;;;;;;5.72;1.70;;;;;;;;;;5010381;28;20017;-66
2022/11/05 14:04:35;;;;;;;6.95;2.08;;;;;;;;;;5003294;28;20057;-65
2022/11/05 14:07:21;;;;;;;4.50;1.63;;;;;;;;;;5002725;28;20018;-66
2022/11/05 14:09:51;;;;;;;6.82;1.95;;;;;;;;;;5000794;28;20030;-66
2022/11/05 14:12:20;;;;;;;4.50;1.42;;;;;;;;;;5011428;28;20030;-66
2022/11/05 14:14:47;;;;;;;8.68;1.33;;;;;;;;;;5001812;28;20434;-65
2022/11/05 14:17:13;;;;;;;7.65;1.45;;;;;;;;;;5001428;28;20104;-68
2022/11/05 14:19:50;;;;;;;7.93;1.75;;;;;;;;;;5004727;28;20018;-67
2022/11/05 14:22:31;;;;;;;4.88;1.67;;;;;;;;;;4995551;28;20026;-69
2022/11/05 14:24:56;;;;;;;4.13;1.40;;;;;;;;;;5006813;28;20014;-67
2022/11/05 14:27:28;;;;;;;3.53;1.60;;;;;;;;;;5003113;28;20037;-67
2022/11/05 14:29:53;;;;;;;5.05;1.60;;;;;;;;;;5002673;28;20030;-66
2022/11/05 14:32:18;;;;;;;5.60;1.80;;;;;;;;;;5008285;28;20526;-66
2022/11/05 14:34:46;;;;;;;5.15;1.25;;;;;;;;;;5012309;28;20013;-67
2022/11/05 14:37:11;;;;;;;8.20;1.63;;;;;;;;;;5009491;28;20857;-67
2022/11/05 14:39:37;;;;;;;7.90;1.40;;;;;;;;;;5004634;28;20033;-69
2022/11/05 14:42:08;;;;;;;8.27;1.15;;;;;;;;;;5009654;28;20025;-67
2022/11/05 14:44:34;;;;;;;3.22;0.93;;;;;;;;;;5005914;28;20072;-65
2022/11/05 14:47:02;;;;;;;7.22;1.83;;;;;;;;;;5009895;28;20018;-65
2022/11/05 14:49:36;;;;;;;6.80;1.05;;;;;;;;;;5009594;28;20026;-65
2022/11/05 14:52:08;;;;;;;4.90;1.35;;;;;;;;;;5002288;28;20113;-65
2022/11/05 14:54:46;;;;;;;8.70;2.13;;;;;;;;;;5008473;28;20060;-65
2022/11/05 14:57:33;;;;;;;6.05;2.55;;;;;;;;;;5004142;28;20429;-66
2022/11/05 15:00:02;;;;;;;9.68;1.58;;;;;;;;;;4997805;28;20034;-66
2022/11/05 15:02:33;;;;;;;5.15;1.98;;;;;;;;;;5003026;28;20023;-65
2022/11/05 15:05:17;;;;;;;3.70;1.70;;;;;;;;;;5010238;28;20017;-65
2022/11/05 15:07:42;;;;;;;7.15;1.88;;;;;;;;;;5009011;28;20030;-66
2022/11/05 15:10:11;;;;;;;1.98;1.60;;;;;;;;;;5002602;28;20625;-65
2022/11/05 15:12:42;;;;;;;13.52;4.10;;;;;;;;;;5004081;28;20046;-68
2022/11/05 15:15:21;;;;;;;10.07;2.33;;;;;;;;;;4999496;28;20014;-68
2022/11/05 15:17:50;;;;;;;8.73;2.75;;;;;;;;;;5002167;28;20101;-65
2022/11/05 15:20:20;;;;;;;7.13;2.35;;;;;;;;;;5008773;28;20022;-65
2022/11/05 15:22:48;;;;;;;9.38;2.00;;;;;;;;;;4998406;28;20118;-65